sensor_id;sensor_type;location;lat;lon;timestamp;temperature;humidity
15596;DHT22;7898;48.658;9.068;2022-07-29T00:00:51;18.30;99.90
15596;DHT22;7898;48.658;9.068;2022-07-29T00:03:17;18.30;99.90
15596;DHT22;7898;48.658;9.068;2022-07-29T00:05:46;18.30;99.90
15596;DHT22;7898;48.658;9.068;2022-07-29T00:08:13;18.20;99.90
15596;DHT22;7898;48.658;9.068;2022-07-29T00:10:41;18.20;99.90
15596;DHT22;7898;48.658;9.068;2022-07-29T00:13:07;18.20;99.90
15596;DHT22;7898;48.658;9.068;2022-07-29T00:15:35;18.20;99.90
15596;DHT22;7898;48.658;9.068;2022-07-29T00:18:01;18.20;99.90
15596;DHT22;7898;48.658;9.068;2022-07-29T00:20:28;18.20;99.90
15596;DHT22;7898;48.658;9.068;2022-07-29T00:22:57;18.10;99.90
15596;DHT22;7898;48.658;9.068;2022-07-29T00:25:24;18.10;99.90
15596;DHT22;7898;48.658;9.068;2022-07-29T00:27:51;18.10;99.90
15596;DHT22;7898;48.658;9.068;2022-07-29T00:30:17;18.10;99.90
15596;DHT22;7898;48.658;9.068;2022-07-29T00:32:44;18.00;99.90
15596;DHT22;7898;48.658;9.068;2022-07-29T00:35:11;18.00;99.90
15596;DHT22;7898;48.658;9.068;2022-07-29T00:37:57;17.90;99.90
15596;DHT22;7898;48.658;9.068;2022-07-29T00:40:24;17.90;99.90
15596;DHT22;7898;48.658;9.068;2022-07-29T00:42:51;17.90;99.90
15596;DHT22;7898;48.658;9.068;2022-07-29T00:45:19;17.80;99.90
15596;DHT22;7898;48.658;9.068;2022-07-29T00:47:47;17.80;99.90
15596;DHT22;7898;48.658;9.068;2022-07-29T00:50:14;17.80;99.90
15596;DHT22;7898;48.658;9.068;2022-07-29T00:52:42;17.80;99.90
15596;DHT22;7898;48.658;9.068;2022-07-29T00:55:14;17.80;99.90
15596;DHT22;7898;48.658;9.068;2022-07-29T00:57:42;17.80;99.90
15596;DHT22;7898;48.658;9.068;2022-07-29T01:00:11;17.80;99.90
15596;DHT22;7898;48.658;9.068;2022-07-29T01:02:38;17.70;99.90
15596;DHT22;7898;48.658;9.068;2022-07-29T01:05:06;17.70;99.90
15596;DHT22;7898;48.658;9.068;2022-07-29T01:07:34;17.70;99.90
15596;DHT22;7898;48.658;9.068;2022-07-29T01:10:03;17.60;99.90
15596;DHT22;7898;48.658;9.068;2022-07-29T01:12:33;17.60;99.90
15596;DHT22;7898;48.658;9.068;2022-07-29T01:15:02;17.60;99.90
15596;DHT22;7898;48.658;9.068;2022-07-29T01:17:33;17.60;99.90
15596;DHT22;7898;48.658;9.068;2022-07-29T01:20:07;17.60;99.90
15596;DHT22;7898;48.658;9.068;2022-07-29T01:22:55;17.60;99.90
15596;DHT22;7898;48.658;9.068;2022-07-29T01:25:42;17.60;99.90
15596;DHT22;7898;48.658;9.068;2022-07-29T01:31:20;17.50;99.90
15596;DHT22;7898;48.658;9.068;2022-07-29T01:33:55;17.40;99.90
15596;DHT22;7898;48.658;9.068;2022-07-29T01:36:28;17.40;99.90
15596;DHT22;7898;48.658;9.068;2022-07-29T01:39:01;17.40;99.90
15596;DHT22;7898;48.658;9.068;2022-07-29T01:41:31;17.40;99.90
15596;DHT22;7898;48.658;9.068;2022-07-29T01:44:05;17.40;99.90
15596;DHT22;7898;48.658;9.068;2022-07-29T01:46:36;17.40;99.90
15596;DHT22;7898;48.658;9.068;2022-07-29T01:49:09;17.40;99.90
15596;DHT22;7898;48.658;9.068;2022-07-29T01:51:43;17.40;99.90
15596;DHT22;7898;48.658;9.068;2022-07-29T01:54:14;17.40;99.90
15596;DHT22;7898;48.658;9.068;2022-07-29T01:56:43;17.40;99.90
15596;DHT22;7898;48.658;9.068;2022-07-29T01:59:13;17.30;99.90
15596;DHT22;7898;48.658;9.068;2022-07-29T02:01:42;17.30;99.90
15596;DHT22;7898;48.658;9.068;2022-07-29T02:04:11;17.30;99.90
15596;DHT22;7898;48.658;9.068;2022-07-29T02:06:40;17.20;99.90
15596;DHT22;7898;48.658;9.068;2022-07-29T02:09:10;17.10;99.90
15596;DHT22;7898;48.658;9.068;2022-07-29T02:11:40;17.00;99.90
15596;DHT22;7898;48.658;9.068;2022-07-29T02:14:10;17.00;99.90
15596;DHT22;7898;48.658;9.068;2022-07-29T02:16:40;16.90;99.90
15596;DHT22;7898;48.658;9.068;2022-07-29T02:19:08;16.90;99.90
15596;DHT22;7898;48.658;9.068;2022-07-29T02:21:38;16.80;99.90
15596;DHT22;7898;48.658;9.068;2022-07-29T02:24:06;16.80;99.90
15596;DHT22;7898;48.658;9.068;2022-07-29T02:26:35;16.80;99.90
15596;DHT22;7898;48.658;9.068;2022-07-29T02:29:02;16.80;99.90
15596;DHT22;7898;48.658;9.068;2022-07-29T02:31:32;16.80;99.90
15596;DHT22;7898;48.658;9.068;2022-07-29T02:34:02;16.70;99.90
15596;DHT22;7898;48.658;9.068;2022-07-29T02:36:30;16.70;99.90
15596;DHT22;7898;48.658;9.068;2022-07-29T02:38:59;16.70;99.90
15596;DHT22;7898;48.658;9.068;2022-07-29T02:41:28;16.70;99.90
15596;DHT22;7898;48.658;9.068;2022-07-29T02:43:58;16.70;99.90
15596;DHT22;7898;48.658;9.068;2022-07-29T02:46:31;16.70;99.90
15596;DHT22;7898;48.658;9.068;2022-07-29T02:49:07;16.70;99.90
15596;DHT22;7898;48.658;9.068;2022-07-29T02:51:41;16.60;99.90
15596;DHT22;7898;48.658;9.068;2022-07-29T02:54:11;16.60;99.90
15596;DHT22;7898;48.658;9.068;2022-07-29T02:56:39;16.50;99.90
15596;DHT22;7898;48.658;9.068;2022-07-29T02:59:09;16.50;99.90
15596;DHT22;7898;48.658;9.068;2022-07-29T03:01:40;16.40;99.90
15596;DHT22;7898;48.658;9.068;2022-07-29T03:04:11;16.40;99.90
15596;DHT22;7898;48.658;9.068;2022-07-29T03:06:40;16.30;99.90
15596;DHT22;7898;48.658;9.068;2022-07-29T03:09:10;16.30;99.90
15596;DHT22;7898;48.658;9.068;2022-07-29T03:11:39;16.30;99.90
15596;DHT22;7898;48.658;9.068;2022-07-29T03:14:06;16.30;99.90
15596;DHT22;7898;48.658;9.068;2022-07-29T03:16:34;16.30;99.90
15596;DHT22;7898;48.658;9.068;2022-07-29T03:19:03;16.30;99.90
15596;DHT22;7898;48.658;9.068;2022-07-29T03:21:32;16.30;99.90
15596;DHT22;7898;48.658;9.068;2022-07-29T03:24:00;16.30;99.90
15596;DHT22;7898;48.658;9.068;2022-07-29T03:26:27;16.30;99.90
15596;DHT22;7898;48.658;9.068;2022-07-29T03:28:54;16.30;99.90
15596;DHT22;7898;48.658;9.068;2022-07-29T03:31:21;16.40;99.90
15596;DHT22;7898;48.658;9.068;2022-07-29T03:33:48;16.40;99.90
15596;DHT22;7898;48.658;9.068;2022-07-29T03:36:15;16.40;99.90
15596;DHT22;7898;48.658;9.068;2022-07-29T03:38:45;16.40;99.90
15596;DHT22;7898;48.658;9.068;2022-07-29T03:41:13;16.40;99.90
15596;DHT22;7898;48.658;9.068;2022-07-29T03:43:41;16.40;99.90
15596;DHT22;7898;48.658;9.068;2022-07-29T03:46:10;16.40;99.90
15596;DHT22;7898;48.658;9.068;2022-07-29T03:48:41;16.40;99.90
15596;DHT22;7898;48.658;9.068;2022-07-29T03:51:10;16.40;99.90
15596;DHT22;7898;48.658;9.068;2022-07-29T03:53:37;16.50;99.90
15596;DHT22;7898;48.658;9.068;2022-07-29T03:56:06;16.50;99.90
15596;DHT22;7898;48.658;9.068;2022-07-29T03:58:34;16.50;99.90
15596;DHT22;7898;48.658;9.068;2022-07-29T04:01:02;16.40;99.90
15596;DHT22;7898;48.658;9.068;2022-07-29T04:03:29;16.30;99.90
15596;DHT22;7898;48.658;9.068;2022-07-29T04:06:00;16.20;99.90
15596;DHT22;7898;48.658;9.068;2022-07-29T04:08:28;16.30;99.90
15596;DHT22;7898;48.658;9.068;2022-07-29T04:10:55;16.30;99.90
15596;DHT22;7898;48.658;9.068;2022-07-29T04:13:23;16.30;99.90
15596;DHT22;7898;48.658;9.068;2022-07-29T04:15:50;16.20;99.90
15596;DHT22;7898;48.658;9.068;2022-07-29T04:18:17;16.20;99.90
15596;DHT22;7898;48.658;9.068;2022-07-29T04:20:44;16.10;99.90
15596;DHT22;7898;48.658;9.068;2022-07-29T04:23:11;16.10;99.90
15596;DHT22;7898;48.658;9.068;2022-07-29T04:25:39;16.00;99.90
15596;DHT22;7898;48.658;9.068;2022-07-29T04:28:06;15.90;99.90
15596;DHT22;7898;48.658;9.068;2022-07-29T04:30:36;15.90;99.90
15596;DHT22;7898;48.658;9.068;2022-07-29T04:33:04;15.80;99.90
15596;DHT22;7898;48.658;9.068;2022-07-29T04:35:34;15.80;99.90
15596;DHT22;7898;48.658;9.068;2022-07-29T04:38:01;15.80;99.90
15596;DHT22;7898;48.658;9.068;2022-07-29T04:40:28;15.80;99.90
15596;DHT22;7898;48.658;9.068;2022-07-29T04:42:55;15.90;99.90
15596;DHT22;7898;48.658;9.068;2022-07-29T04:45:22;15.90;99.90
15596;DHT22;7898;48.658;9.068;2022-07-29T04:47:50;16.00;99.90
15596;DHT22;7898;48.658;9.068;2022-07-29T04:50:17;16.10;99.90
15596;DHT22;7898;48.658;9.068;2022-07-29T04:52:44;16.20;99.90
15596;DHT22;7898;48.658;9.068;2022-07-29T04:55:11;16.30;99.90
15596;DHT22;7898;48.658;9.068;2022-07-29T04:57:38;16.30;99.90
15596;DHT22;7898;48.658;9.068;2022-07-29T05:00:07;16.30;99.90
15596;DHT22;7898;48.658;9.068;2022-07-29T05:02:34;16.40;99.90
15596;DHT22;7898;48.658;9.068;2022-07-29T05:05:03;16.50;99.90
15596;DHT22;7898;48.658;9.068;2022-07-29T05:07:30;16.60;99.90
15596;DHT22;7898;48.658;9.068;2022-07-29T05:09:57;16.70;99.90
15596;DHT22;7898;48.658;9.068;2022-07-29T05:12:24;16.80;99.90
15596;DHT22;7898;48.658;9.068;2022-07-29T05:14:51;17.00;99.90
15596;DHT22;7898;48.658;9.068;2022-07-29T05:17:18;17.00;99.90
15596;DHT22;7898;48.658;9.068;2022-07-29T05:19:45;17.10;99.90
15596;DHT22;7898;48.658;9.068;2022-07-29T05:22:13;17.20;99.90
15596;DHT22;7898;48.658;9.068;2022-07-29T05:24:40;17.30;99.90
15596;DHT22;7898;48.658;9.068;2022-07-29T05:27:08;17.50;99.90
15596;DHT22;7898;48.658;9.068;2022-07-29T05:29:35;17.60;99.90
15596;DHT22;7898;48.658;9.068;2022-07-29T05:32:02;17.70;99.90
15596;DHT22;7898;48.658;9.068;2022-07-29T05:34:29;17.80;99.90
15596;DHT22;7898;48.658;9.068;2022-07-29T05:36:57;17.90;99.90
15596;DHT22;7898;48.658;9.068;2022-07-29T05:39:25;17.90;99.90
15596;DHT22;7898;48.658;9.068;2022-07-29T05:41:52;17.90;99.90
15596;DHT22;7898;48.658;9.068;2022-07-29T05:44:19;18.00;99.90
15596;DHT22;7898;48.658;9.068;2022-07-29T05:46:46;18.00;99.90
15596;DHT22;7898;48.658;9.068;2022-07-29T05:49:12;18.00;99.90
15596;DHT22;7898;48.658;9.068;2022-07-29T05:51:41;18.10;99.90
15596;DHT22;7898;48.658;9.068;2022-07-29T05:54:08;18.10;99.90
15596;DHT22;7898;48.658;9.068;2022-07-29T05:56:37;18.20;99.90
15596;DHT22;7898;48.658;9.068;2022-07-29T05:59:04;18.20;99.90
15596;DHT22;7898;48.658;9.068;2022-07-29T06:01:31;18.20;99.90
15596;DHT22;7898;48.658;9.068;2022-07-29T06:03:58;18.30;99.90
15596;DHT22;7898;48.658;9.068;2022-07-29T06:06:24;18.30;99.90
15596;DHT22;7898;48.658;9.068;2022-07-29T06:08:51;18.30;99.90
15596;DHT22;7898;48.658;9.068;2022-07-29T06:11:18;18.40;99.90
15596;DHT22;7898;48.658;9.068;2022-07-29T06:13:46;18.40;99.90
15596;DHT22;7898;48.658;9.068;2022-07-29T06:16:13;18.60;99.90
15596;DHT22;7898;48.658;9.068;2022-07-29T06:18:40;18.70;99.90
15596;DHT22;7898;48.658;9.068;2022-07-29T06:21:08;19.00;99.90
15596;DHT22;7898;48.658;9.068;2022-07-29T06:23:36;19.30;99.90
15596;DHT22;7898;48.658;9.068;2022-07-29T06:26:03;19.50;99.90
15596;DHT22;7898;48.658;9.068;2022-07-29T06:28:30;19.80;99.90
15596;DHT22;7898;48.658;9.068;2022-07-29T06:30:59;20.00;99.90
15596;DHT22;7898;48.658;9.068;2022-07-29T06:33:26;20.20;99.90
15596;DHT22;7898;48.658;9.068;2022-07-29T06:35:53;20.30;99.90
15596;DHT22;7898;48.658;9.068;2022-07-29T06:38:20;20.40;99.90
15596;DHT22;7898;48.658;9.068;2022-07-29T06:40:47;20.50;99.90
15596;DHT22;7898;48.658;9.068;2022-07-29T06:43:26;20.60;99.90
15596;DHT22;7898;48.658;9.068;2022-07-29T06:45:55;20.70;99.90
15596;DHT22;7898;48.658;9.068;2022-07-29T06:48:23;20.90;99.90
15596;DHT22;7898;48.658;9.068;2022-07-29T06:50:50;21.10;99.90
15596;DHT22;7898;48.658;9.068;2022-07-29T06:53:17;21.10;99.90
15596;DHT22;7898;48.658;9.068;2022-07-29T06:55:44;21.00;99.90
15596;DHT22;7898;48.658;9.068;2022-07-29T06:58:11;21.00;99.90
15596;DHT22;7898;48.658;9.068;2022-07-29T07:00:39;20.90;99.90
15596;DHT22;7898;48.658;9.068;2022-07-29T07:03:06;20.90;99.90
15596;DHT22;7898;48.658;9.068;2022-07-29T07:05:34;21.00;99.90
15596;DHT22;7898;48.658;9.068;2022-07-29T07:08:01;21.10;99.90
15596;DHT22;7898;48.658;9.068;2022-07-29T07:10:28;21.50;99.90
15596;DHT22;7898;48.658;9.068;2022-07-29T07:12:55;21.80;99.90
15596;DHT22;7898;48.658;9.068;2022-07-29T07:15:22;22.00;99.90
15596;DHT22;7898;48.658;9.068;2022-07-29T07:17:49;22.10;99.90
15596;DHT22;7898;48.658;9.068;2022-07-29T07:20:16;22.30;99.90
15596;DHT22;7898;48.658;9.068;2022-07-29T07:22:44;22.70;99.90
15596;DHT22;7898;48.658;9.068;2022-07-29T07:25:12;22.80;99.90
15596;DHT22;7898;48.658;9.068;2022-07-29T07:27:41;22.80;99.90
15596;DHT22;7898;48.658;9.068;2022-07-29T07:30:09;22.60;99.90
15596;DHT22;7898;48.658;9.068;2022-07-29T07:32:36;22.40;99.90
15596;DHT22;7898;48.658;9.068;2022-07-29T07:35:04;23.00;99.90
15596;DHT22;7898;48.658;9.068;2022-07-29T07:37:31;23.40;99.90
15596;DHT22;7898;48.658;9.068;2022-07-29T07:39:59;23.90;99.90
15596;DHT22;7898;48.658;9.068;2022-07-29T07:42:26;24.20;99.90
15596;DHT22;7898;48.658;9.068;2022-07-29T07:44:53;24.40;99.90
15596;DHT22;7898;48.658;9.068;2022-07-29T07:47:20;24.30;99.90
15596;DHT22;7898;48.658;9.068;2022-07-29T07:49:49;24.50;99.90
15596;DHT22;7898;48.658;9.068;2022-07-29T07:52:18;24.50;99.90
15596;DHT22;7898;48.658;9.068;2022-07-29T07:54:46;24.40;99.90
15596;DHT22;7898;48.658;9.068;2022-07-29T07:57:14;24.50;99.90
15596;DHT22;7898;48.658;9.068;2022-07-29T07:59:41;24.50;99.90
15596;DHT22;7898;48.658;9.068;2022-07-29T08:02:09;24.70;99.90
15596;DHT22;7898;48.658;9.068;2022-07-29T08:04:36;24.60;99.90
15596;DHT22;7898;48.658;9.068;2022-07-29T08:07:06;24.80;99.90
15596;DHT22;7898;48.658;9.068;2022-07-29T08:09:33;25.20;99.90
15596;DHT22;7898;48.658;9.068;2022-07-29T08:12:00;25.00;99.90
15596;DHT22;7898;48.658;9.068;2022-07-29T08:14:30;25.20;99.90
15596;DHT22;7898;48.658;9.068;2022-07-29T08:16:58;25.30;99.90
15596;DHT22;7898;48.658;9.068;2022-07-29T08:19:25;25.40;99.90
15596;DHT22;7898;48.658;9.068;2022-07-29T08:21:52;25.50;99.90
15596;DHT22;7898;48.658;9.068;2022-07-29T08:24:19;25.40;99.90
15596;DHT22;7898;48.658;9.068;2022-07-29T08:27:03;25.50;99.90
15596;DHT22;7898;48.658;9.068;2022-07-29T08:29:32;25.60;99.90
15596;DHT22;7898;48.658;9.068;2022-07-29T08:31:59;25.60;99.90
15596;DHT22;7898;48.658;9.068;2022-07-29T08:34:26;25.60;99.90
15596;DHT22;7898;48.658;9.068;2022-07-29T08:36:54;25.80;99.90
15596;DHT22;7898;48.658;9.068;2022-07-29T08:39:21;25.90;99.90
15596;DHT22;7898;48.658;9.068;2022-07-29T08:41:48;26.00;99.90
15596;DHT22;7898;48.658;9.068;2022-07-29T08:44:16;26.10;99.90
15596;DHT22;7898;48.658;9.068;2022-07-29T08:46:45;26.10;99.90
15596;DHT22;7898;48.658;9.068;2022-07-29T08:49:12;25.90;99.90
15596;DHT22;7898;48.658;9.068;2022-07-29T08:51:40;26.00;99.90
15596;DHT22;7898;48.658;9.068;2022-07-29T08:54:08;26.10;99.90
15596;DHT22;7898;48.658;9.068;2022-07-29T08:56:36;26.20;99.90
15596;DHT22;7898;48.658;9.068;2022-07-29T08:59:05;26.40;99.90
15596;DHT22;7898;48.658;9.068;2022-07-29T09:01:33;26.40;99.90
15596;DHT22;7898;48.658;9.068;2022-07-29T09:04:06;26.60;99.90
15596;DHT22;7898;48.658;9.068;2022-07-29T09:06:39;26.70;99.90
15596;DHT22;7898;48.658;9.068;2022-07-29T09:09:08;26.70;99.90
15596;DHT22;7898;48.658;9.068;2022-07-29T09:11:35;26.60;99.90
15596;DHT22;7898;48.658;9.068;2022-07-29T09:14:02;26.80;99.90
15596;DHT22;7898;48.658;9.068;2022-07-29T09:16:47;26.90;99.90
15596;DHT22;7898;48.658;9.068;2022-07-29T09:19:27;26.90;99.90
15596;DHT22;7898;48.658;9.068;2022-07-29T09:21:55;27.10;99.90
15596;DHT22;7898;48.658;9.068;2022-07-29T09:24:37;27.20;99.90
15596;DHT22;7898;48.658;9.068;2022-07-29T09:27:18;27.00;99.90
15596;DHT22;7898;48.658;9.068;2022-07-29T09:29:47;27.00;99.90
15596;DHT22;7898;48.658;9.068;2022-07-29T09:32:21;26.80;99.90
15596;DHT22;7898;48.658;9.068;2022-07-29T09:34:49;26.80;99.90
15596;DHT22;7898;48.658;9.068;2022-07-29T09:37:26;26.80;99.90
15596;DHT22;7898;48.658;9.068;2022-07-29T09:39:53;26.50;99.90
15596;DHT22;7898;48.658;9.068;2022-07-29T09:42:28;26.20;99.90
15596;DHT22;7898;48.658;9.068;2022-07-29T09:44:55;26.10;99.90
15596;DHT22;7898;48.658;9.068;2022-07-29T09:47:22;25.90;99.90
15596;DHT22;7898;48.658;9.068;2022-07-29T09:49:55;25.80;99.90
15596;DHT22;7898;48.658;9.068;2022-07-29T09:52:24;25.80;99.90
15596;DHT22;7898;48.658;9.068;2022-07-29T09:54:51;25.80;99.90
15596;DHT22;7898;48.658;9.068;2022-07-29T09:57:26;25.80;99.90
15596;DHT22;7898;48.658;9.068;2022-07-29T09:59:58;26.10;99.90
15596;DHT22;7898;48.658;9.068;2022-07-29T10:02:30;26.30;99.90
15596;DHT22;7898;48.658;9.068;2022-07-29T10:04:59;26.50;99.90
15596;DHT22;7898;48.658;9.068;2022-07-29T10:07:27;26.70;99.90
15596;DHT22;7898;48.658;9.068;2022-07-29T10:10:09;26.80;99.90
15596;DHT22;7898;48.658;9.068;2022-07-29T10:12:49;27.10;99.90
15596;DHT22;7898;48.658;9.068;2022-07-29T10:15:16;27.30;99.90
15596;DHT22;7898;48.658;9.068;2022-07-29T10:17:44;27.50;99.90
15596;DHT22;7898;48.658;9.068;2022-07-29T10:20:13;27.70;99.90
15596;DHT22;7898;48.658;9.068;2022-07-29T10:22:40;27.80;99.90
15596;DHT22;7898;48.658;9.068;2022-07-29T10:25:08;27.90;99.90
15596;DHT22;7898;48.658;9.068;2022-07-29T10:27:36;27.90;99.90
15596;DHT22;7898;48.658;9.068;2022-07-29T10:30:04;28.00;99.90
15596;DHT22;7898;48.658;9.068;2022-07-29T10:32:53;28.20;99.90
15596;DHT22;7898;48.658;9.068;2022-07-29T10:35:39;28.30;99.90
15596;DHT22;7898;48.658;9.068;2022-07-29T10:41:06;28.00;99.90
15596;DHT22;7898;48.658;9.068;2022-07-29T10:43:59;28.00;99.90
15596;DHT22;7898;48.658;9.068;2022-07-29T10:46:27;27.90;99.90
15596;DHT22;7898;48.658;9.068;2022-07-29T10:49:11;27.40;99.90
15596;DHT22;7898;48.658;9.068;2022-07-29T10:52:04;26.90;99.90
15596;DHT22;7898;48.658;9.068;2022-07-29T10:54:52;26.20;99.90
15596;DHT22;7898;48.658;9.068;2022-07-29T10:57:22;25.60;99.90
15596;DHT22;7898;48.658;9.068;2022-07-29T11:02:44;24.70;99.90
15596;DHT22;7898;48.658;9.068;2022-07-29T11:05:13;24.20;99.90
15596;DHT22;7898;48.658;9.068;2022-07-29T11:10:44;22.70;99.90
15596;DHT22;7898;48.658;9.068;2022-07-29T11:13:11;21.90;99.90
15596;DHT22;7898;48.658;9.068;2022-07-29T11:15:52;21.40;99.90
15596;DHT22;7898;48.658;9.068;2022-07-29T11:18:19;20.90;99.90
15596;DHT22;7898;48.658;9.068;2022-07-29T11:20:48;20.70;99.90
15596;DHT22;7898;48.658;9.068;2022-07-29T11:23:26;20.50;99.90
15596;DHT22;7898;48.658;9.068;2022-07-29T11:26:16;20.30;99.90
15596;DHT22;7898;48.658;9.068;2022-07-29T11:28:59;20.20;99.90
15596;DHT22;7898;48.658;9.068;2022-07-29T11:31:36;20.20;99.90
15596;DHT22;7898;48.658;9.068;2022-07-29T11:34:18;20.10;99.90
15596;DHT22;7898;48.658;9.068;2022-07-29T11:37:17;20.00;99.90
15596;DHT22;7898;48.658;9.068;2022-07-29T11:39:45;19.80;99.90
15596;DHT22;7898;48.658;9.068;2022-07-29T11:42:38;19.70;99.90
15596;DHT22;7898;48.658;9.068;2022-07-29T11:45:07;19.70;99.90
15596;DHT22;7898;48.658;9.068;2022-07-29T11:47:37;19.70;99.90
15596;DHT22;7898;48.658;9.068;2022-07-29T11:50:06;19.70;99.90
15596;DHT22;7898;48.658;9.068;2022-07-29T11:52:35;19.60;99.90
15596;DHT22;7898;48.658;9.068;2022-07-29T11:55:04;19.50;99.90
15596;DHT22;7898;48.658;9.068;2022-07-29T11:57:33;19.40;99.90
15596;DHT22;7898;48.658;9.068;2022-07-29T12:00:04;19.40;99.90
15596;DHT22;7898;48.658;9.068;2022-07-29T12:02:41;19.50;99.90
15596;DHT22;7898;48.658;9.068;2022-07-29T12:05:09;19.50;99.90
15596;DHT22;7898;48.658;9.068;2022-07-29T12:07:38;19.50;99.90
15596;DHT22;7898;48.658;9.068;2022-07-29T12:10:06;19.30;99.90
15596;DHT22;7898;48.658;9.068;2022-07-29T12:12:34;19.30;99.90
15596;DHT22;7898;48.658;9.068;2022-07-29T12:15:13;19.30;99.90
15596;DHT22;7898;48.658;9.068;2022-07-29T12:17:41;19.30;99.90
15596;DHT22;7898;48.658;9.068;2022-07-29T12:20:08;19.40;99.90
15596;DHT22;7898;48.658;9.068;2022-07-29T12:22:38;19.50;99.90
15596;DHT22;7898;48.658;9.068;2022-07-29T12:25:08;19.60;99.90
15596;DHT22;7898;48.658;9.068;2022-07-29T12:27:35;19.80;99.90
15596;DHT22;7898;48.658;9.068;2022-07-29T12:30:06;19.90;99.90
15596;DHT22;7898;48.658;9.068;2022-07-29T12:32:36;20.00;99.90
15596;DHT22;7898;48.658;9.068;2022-07-29T12:35:05;20.00;99.90
15596;DHT22;7898;48.658;9.068;2022-07-29T12:37:33;20.10;99.90
15596;DHT22;7898;48.658;9.068;2022-07-29T12:40:01;20.10;99.90
15596;DHT22;7898;48.658;9.068;2022-07-29T12:42:28;20.20;99.90
15596;DHT22;7898;48.658;9.068;2022-07-29T12:44:55;20.30;99.90
15596;DHT22;7898;48.658;9.068;2022-07-29T12:47:23;20.30;99.90
15596;DHT22;7898;48.658;9.068;2022-07-29T12:50:07;20.30;99.90
15596;DHT22;7898;48.658;9.068;2022-07-29T12:52:35;20.10;99.90
15596;DHT22;7898;48.658;9.068;2022-07-29T12:55:03;20.10;99.90
15596;DHT22;7898;48.658;9.068;2022-07-29T12:57:30;20.10;99.90
15596;DHT22;7898;48.658;9.068;2022-07-29T13:00:04;20.00;99.90
15596;DHT22;7898;48.658;9.068;2022-07-29T13:02:33;19.90;99.90
15596;DHT22;7898;48.658;9.068;2022-07-29T13:05:01;19.90;99.90
15596;DHT22;7898;48.658;9.068;2022-07-29T13:07:30;19.70;99.90
15596;DHT22;7898;48.658;9.068;2022-07-29T13:10:11;19.60;99.90
15596;DHT22;7898;48.658;9.068;2022-07-29T13:12:39;19.50;99.90
15596;DHT22;7898;48.658;9.068;2022-07-29T13:15:13;19.50;99.90
15596;DHT22;7898;48.658;9.068;2022-07-29T13:17:42;19.50;99.90
15596;DHT22;7898;48.658;9.068;2022-07-29T13:20:12;19.50;99.90
15596;DHT22;7898;48.658;9.068;2022-07-29T13:22:40;19.60;99.90
15596;DHT22;7898;48.658;9.068;2022-07-29T13:25:08;19.60;99.90
15596;DHT22;7898;48.658;9.068;2022-07-29T13:27:38;19.70;99.90
15596;DHT22;7898;48.658;9.068;2022-07-29T13:30:07;19.80;99.90
15596;DHT22;7898;48.658;9.068;2022-07-29T13:32:35;19.90;99.90
15596;DHT22;7898;48.658;9.068;2022-07-29T13:35:04;20.10;99.90
15596;DHT22;7898;48.658;9.068;2022-07-29T13:37:35;20.20;99.90
15596;DHT22;7898;48.658;9.068;2022-07-29T13:40:05;20.40;99.90
15596;DHT22;7898;48.658;9.068;2022-07-29T13:42:32;20.50;99.90
15596;DHT22;7898;48.658;9.068;2022-07-29T13:45:00;20.80;99.90
15596;DHT22;7898;48.658;9.068;2022-07-29T13:47:27;21.00;99.90
15596;DHT22;7898;48.658;9.068;2022-07-29T13:49:54;21.10;99.90
15596;DHT22;7898;48.658;9.068;2022-07-29T13:52:21;21.20;99.90
15596;DHT22;7898;48.658;9.068;2022-07-29T13:54:50;21.30;99.90
15596;DHT22;7898;48.658;9.068;2022-07-29T13:57:17;21.40;99.90
15596;DHT22;7898;48.658;9.068;2022-07-29T13:59:44;21.40;99.90
15596;DHT22;7898;48.658;9.068;2022-07-29T14:02:11;21.50;99.90
15596;DHT22;7898;48.658;9.068;2022-07-29T14:04:39;21.60;99.90
15596;DHT22;7898;48.658;9.068;2022-07-29T14:07:06;21.80;99.90
15596;DHT22;7898;48.658;9.068;2022-07-29T14:09:33;21.90;99.90
15596;DHT22;7898;48.658;9.068;2022-07-29T14:12:02;21.90;99.90
15596;DHT22;7898;48.658;9.068;2022-07-29T14:14:29;22.00;99.90
15596;DHT22;7898;48.658;9.068;2022-07-29T14:16:57;22.00;99.90
15596;DHT22;7898;48.658;9.068;2022-07-29T14:19:24;22.00;99.90
15596;DHT22;7898;48.658;9.068;2022-07-29T14:21:51;22.20;99.90
15596;DHT22;7898;48.658;9.068;2022-07-29T14:24:18;22.10;99.90
15596;DHT22;7898;48.658;9.068;2022-07-29T14:26:45;22.20;99.90
15596;DHT22;7898;48.658;9.068;2022-07-29T14:29:13;22.30;99.90
15596;DHT22;7898;48.658;9.068;2022-07-29T14:31:40;22.40;99.90
15596;DHT22;7898;48.658;9.068;2022-07-29T14:34:08;22.40;99.90
15596;DHT22;7898;48.658;9.068;2022-07-29T14:36:35;22.30;99.90
15596;DHT22;7898;48.658;9.068;2022-07-29T14:39:02;22.30;99.90
15596;DHT22;7898;48.658;9.068;2022-07-29T14:41:29;22.40;99.90
15596;DHT22;7898;48.658;9.068;2022-07-29T14:43:56;22.40;99.90
15596;DHT22;7898;48.658;9.068;2022-07-29T14:46:27;22.40;99.90
15596;DHT22;7898;48.658;9.068;2022-07-29T14:48:54;22.30;99.90
15596;DHT22;7898;48.658;9.068;2022-07-29T14:51:21;22.30;99.90
15596;DHT22;7898;48.658;9.068;2022-07-29T14:53:48;22.30;99.90
15596;DHT22;7898;48.658;9.068;2022-07-29T14:56:15;22.40;99.90
15596;DHT22;7898;48.658;9.068;2022-07-29T14:58:42;22.30;99.90
15596;DHT22;7898;48.658;9.068;2022-07-29T15:01:09;22.40;99.90
15596;DHT22;7898;48.658;9.068;2022-07-29T15:03:37;22.30;99.90
15596;DHT22;7898;48.658;9.068;2022-07-29T15:06:04;22.40;99.90
15596;DHT22;7898;48.658;9.068;2022-07-29T15:08:31;22.40;99.90
15596;DHT22;7898;48.658;9.068;2022-07-29T15:10:58;22.40;99.90
15596;DHT22;7898;48.658;9.068;2022-07-29T15:13:26;22.50;99.90
15596;DHT22;7898;48.658;9.068;2022-07-29T15:15:53;22.50;99.90
15596;DHT22;7898;48.658;9.068;2022-07-29T15:18:20;22.50;99.90
15596;DHT22;7898;48.658;9.068;2022-07-29T15:20:48;22.60;99.90
15596;DHT22;7898;48.658;9.068;2022-07-29T15:23:15;22.30;99.90
15596;DHT22;7898;48.658;9.068;2022-07-29T15:25:42;22.30;99.90
15596;DHT22;7898;48.658;9.068;2022-07-29T15:28:10;22.20;99.90
15596;DHT22;7898;48.658;9.068;2022-07-29T15:30:37;22.20;99.90
15596;DHT22;7898;48.658;9.068;2022-07-29T15:33:07;22.10;99.90
15596;DHT22;7898;48.658;9.068;2022-07-29T15:35:34;22.30;99.90
15596;DHT22;7898;48.658;9.068;2022-07-29T15:38:03;22.30;99.90
15596;DHT22;7898;48.658;9.068;2022-07-29T15:40:30;22.40;99.90
15596;DHT22;7898;48.658;9.068;2022-07-29T15:42:57;22.50;99.90
15596;DHT22;7898;48.658;9.068;2022-07-29T15:45:26;22.50;99.90
15596;DHT22;7898;48.658;9.068;2022-07-29T15:47:53;22.50;99.90
15596;DHT22;7898;48.658;9.068;2022-07-29T15:50:20;22.90;99.90
15596;DHT22;7898;48.658;9.068;2022-07-29T15:52:47;22.50;99.90
15596;DHT22;7898;48.658;9.068;2022-07-29T15:55:16;22.40;99.90
15596;DHT22;7898;48.658;9.068;2022-07-29T15:57:43;22.40;99.90
15596;DHT22;7898;48.658;9.068;2022-07-29T16:00:11;22.50;99.90
15596;DHT22;7898;48.658;9.068;2022-07-29T16:02:38;22.50;99.90
15596;DHT22;7898;48.658;9.068;2022-07-29T16:05:05;22.50;99.90
15596;DHT22;7898;48.658;9.068;2022-07-29T16:07:32;22.60;99.90
15596;DHT22;7898;48.658;9.068;2022-07-29T16:09:59;22.70;99.90